createdAt,value
2022-08-17T00:00:42.757Z,18.50
2022-08-17T00:03:40.799Z,18.50
2022-08-17T00:06:29.107Z,18.40
2022-08-17T00:09:18.207Z,18.40
2022-08-17T00:12:42.563Z,18.40
2022-08-17T00:15:13.428Z,18.40
2022-08-17T00:17:59.075Z,18.40
2022-08-17T00:20:44.699Z,18.50
2022-08-17T00:23:30.208Z,18.50
2022-08-17T00:26:16.501Z,18.50
2022-08-17T00:29:21.895Z,18.60
2022-08-17T00:33:16.006Z,18.50
2022-08-17T00:35:16.074Z,18.50
2022-08-17T00:38:01.948Z,18.50
2022-08-17T00:40:59.011Z,18.50
2022-08-17T00:43:51.503Z,18.50
2022-08-17T00:46:40.442Z,18.50
2022-08-17T00:49:26.259Z,18.50
2022-08-17T00:52:16.671Z,18.40
2022-08-17T00:55:03.207Z,18.50
2022-08-17T00:57:55.218Z,18.40
2022-08-17T01:00:45.866Z,18.40
2022-08-17T01:03:31.665Z,18.50
2022-08-17T01:06:17.829Z,18.30
2022-08-17T01:09:05.033Z,18.40
2022-08-17T01:11:53.878Z,18.30
2022-08-17T01:14:39.796Z,18.30
2022-08-17T01:17:27.284Z,18.30
2022-08-17T01:20:12.808Z,18.30
2022-08-17T01:22:59.274Z,18.30
2022-08-17T01:25:45.449Z,18.20
2022-08-17T01:28:53.820Z,18.20
2022-08-17T01:31:52.364Z,18.20
2022-08-17T01:34:43.953Z,18.20
2022-08-17T01:37:39.863Z,18.20
2022-08-17T01:40:39.074Z,18.10
2022-08-17T01:43:34.531Z,18.20
2022-08-17T01:46:33.481Z,18.30
2022-08-17T01:49:19.786Z,18.20
2022-08-17T01:52:08.350Z,18.30
2022-08-17T01:54:54.150Z,18.30
2022-08-17T01:57:39.439Z,18.30
2022-08-17T02:00:26.925Z,18.20
2022-08-17T02:03:34.519Z,18.30
2022-08-17T02:06:27.525Z,18.20
2022-08-17T02:09:17.040Z,18.20
2022-08-17T02:12:37.414Z,18.10
2022-08-17T02:15:12.377Z,18.10
2022-08-17T02:17:57.927Z,18.10
2022-08-17T02:20:43.758Z,18.10
2022-08-17T02:23:32.186Z,18.00
2022-08-17T02:26:26.062Z,18.00
2022-08-17T02:29:12.245Z,17.90
2022-08-17T02:31:58.578Z,17.90
2022-08-17T02:34:44.430Z,17.90
2022-08-17T02:37:30.171Z,17.90
2022-08-17T02:40:15.744Z,17.90
2022-08-17T02:43:03.405Z,17.90
2022-08-17T02:45:49.120Z,17.90
2022-08-17T02:48:35.875Z,17.80
2022-08-17T02:51:21.017Z,17.90
2022-08-17T02:54:39.638Z,17.80
2022-08-17T02:57:11.710Z,17.80
2022-08-17T02:59:56.900Z,17.80
2022-08-17T03:02:43.520Z,17.80
2022-08-17T03:05:30.659Z,17.80
2022-08-17T03:08:16.020Z,17.80
2022-08-17T03:11:01.183Z,17.80
2022-08-17T03:13:46.379Z,17.80
2022-08-17T03:16:31.496Z,17.80
2022-08-17T03:19:16.555Z,17.70
2022-08-17T03:22:36.276Z,17.80
2022-08-17T03:25:11.161Z,17.70
2022-08-17T03:27:57.729Z,17.70
2022-08-17T03:30:43.265Z,17.80
2022-08-17T03:33:28.570Z,17.70
2022-08-17T03:36:13.846Z,17.70
2022-08-17T03:38:59.480Z,17.70
2022-08-17T03:41:44.483Z,17.70
2022-08-17T03:44:29.998Z,17.70
2022-08-17T03:47:33.825Z,17.70
2022-08-17T03:50:39.365Z,17.60
2022-08-17T03:53:43.022Z,17.60
2022-08-17T03:56:43.798Z,17.70
2022-08-17T03:59:29.937Z,17.80
2022-08-17T04:02:26.837Z,17.70
2022-08-17T04:05:12.065Z,17.80
2022-08-17T04:07:57.548Z,17.80
2022-08-17T04:10:46.096Z,17.80
2022-08-17T04:13:31.420Z,17.80
2022-08-17T04:16:16.817Z,17.90
2022-08-17T04:19:02.712Z,17.90
2022-08-17T04:21:47.709Z,17.90
2022-08-17T04:24:33.627Z,17.90
2022-08-17T04:27:18.666Z,17.90
2022-08-17T04:30:06.997Z,18.00
2022-08-17T04:33:05.321Z,18.00
2022-08-17T04:35:56.405Z,18.00
2022-08-17T04:38:42.572Z,18.00
2022-08-17T04:41:46.667Z,18.10
2022-08-17T04:44:37.619Z,18.10
2022-08-17T04:47:24.106Z,18.20
2022-08-17T04:50:09.805Z,18.20
2022-08-17T04:52:55.655Z,18.30
2022-08-17T04:55:41.130Z,18.40
2022-08-17T04:58:26.664Z,18.60
2022-08-17T05:01:12.340Z,18.70
2022-08-17T05:03:59.224Z,18.80
2022-08-17T05:06:45.221Z,18.90
2022-08-17T05:09:31.027Z,19.00
2022-08-17T05:12:16.385Z,19.00
2022-08-17T05:15:01.493Z,19.00
2022-08-17T05:17:46.763Z,19.00
2022-08-17T05:20:32.947Z,19.00
2022-08-17T05:23:19.206Z,19.10
2022-08-17T05:26:04.310Z,19.00
2022-08-17T05:28:52.490Z,19.00
2022-08-17T05:31:39.760Z,19.00
2022-08-17T05:34:25.112Z,19.00
2022-08-17T05:37:10.371Z,19.00
2022-08-17T05:39:55.449Z,18.90
2022-08-17T05:42:41.418Z,18.90
2022-08-17T05:45:54.545Z,18.90
2022-08-17T05:48:40.122Z,18.90
2022-08-17T05:51:45.225Z,18.90
2022-08-17T05:54:39.844Z,18.90
2022-08-17T05:57:33.171Z,18.90
2022-08-17T06:00:21.957Z,18.90
2022-08-17T06:03:34.400Z,18.90
2022-08-17T06:06:31.110Z,19.00
2022-08-17T06:09:26.663Z,19.20
2022-08-17T06:12:19.944Z,19.20
2022-08-17T06:15:07.407Z,19.40
2022-08-17T06:17:59.025Z,19.50
2022-08-17T06:20:47.890Z,19.60
2022-08-17T06:23:38.560Z,19.80
2022-08-17T06:26:31.235Z,20.00
2022-08-17T06:29:37.890Z,20.20
2022-08-17T06:32:23.531Z,20.30
2022-08-17T06:35:10.647Z,20.40
2022-08-17T06:38:00.704Z,20.40
2022-08-17T06:40:49.067Z,20.50
2022-08-17T06:43:53.486Z,20.50
2022-08-17T06:46:40.612Z,20.50
2022-08-17T06:49:28.609Z,20.60
2022-08-17T06:52:46.601Z,20.50
2022-08-17T06:55:56.803Z,20.60
2022-08-17T06:58:43.431Z,20.70
2022-08-17T07:01:31.605Z,20.80
2022-08-17T07:04:23.513Z,21.00
2022-08-17T07:07:28.653Z,21.20
2022-08-17T07:10:14.458Z,21.30
2022-08-17T07:13:06.172Z,21.60
2022-08-17T07:15:56.942Z,21.80
2022-08-17T07:18:43.882Z,21.90
2022-08-17T07:21:38.629Z,22.00
2022-08-17T07:24:29.610Z,22.20
2022-08-17T07:27:20.840Z,22.20
2022-08-17T07:30:11.749Z,22.30
2022-08-17T07:33:01.771Z,22.50
2022-08-17T07:35:48.418Z,22.70
2022-08-17T07:38:35.482Z,22.70
2022-08-17T07:41:21.194Z,22.80
2022-08-17T07:44:11.413Z,22.90
2022-08-17T07:47:15.413Z,23.10
2022-08-17T07:50:00.889Z,23.20
2022-08-17T07:52:51.998Z,23.20
2022-08-17T07:55:41.463Z,23.30
2022-08-17T07:58:26.691Z,23.30
2022-08-17T08:01:15.465Z,23.30
2022-08-17T08:04:19.527Z,23.40
2022-08-17T08:07:13.034Z,23.60
2022-08-17T08:10:35.494Z,23.70
2022-08-17T08:13:20.612Z,23.80
2022-08-17T08:16:19.848Z,23.80
2022-08-17T08:19:05.580Z,23.80
2022-08-17T08:22:04.275Z,23.80
2022-08-17T08:24:49.712Z,23.80
2022-08-17T08:27:39.249Z,23.80
2022-08-17T08:30:24.895Z,23.90
2022-08-17T08:33:25.455Z,24.00
2022-08-17T08:36:10.837Z,24.00
2022-08-17T08:38:56.669Z,24.00
2022-08-17T08:41:59.602Z,24.00
2022-08-17T08:45:00.801Z,24.10
2022-08-17T08:47:50.115Z,23.90
2022-08-17T08:50:48.889Z,24.00
2022-08-17T08:53:40.471Z,24.10
2022-08-17T08:57:04.981Z,24.20
2022-08-17T08:59:58.029Z,24.30
2022-08-17T09:02:55.561Z,24.20
2022-08-17T09:05:49.979Z,24.20
2022-08-17T09:08:52.920Z,24.10
2022-08-17T09:12:02.392Z,24.00
2022-08-17T09:14:56.762Z,23.90
2022-08-17T09:18:36.408Z,23.90
2022-08-17T09:21:07.992Z,23.90
2022-08-17T09:24:00.204Z,23.90
2022-08-17T09:26:53.966Z,25.80
2022-08-17T09:29:42.992Z,23.90
2022-08-17T09:32:31.398Z,24.00
2022-08-17T09:35:19.944Z,23.90
2022-08-17T09:38:14.784Z,24.00
2022-08-17T09:41:00.398Z,24.00
2022-08-17T09:43:49.058Z,23.90
2022-08-17T09:46:38.908Z,24.00
2022-08-17T09:49:36.356Z,24.00
2022-08-17T09:52:27.025Z,24.10
2022-08-17T09:55:12.702Z,24.10
2022-08-17T09:57:58.414Z,24.20
2022-08-17T10:00:53.525Z,24.20
2022-08-17T10:03:50.792Z,24.10
2022-08-17T10:07:02.862Z,24.20
2022-08-17T10:09:55.919Z,24.20
2022-08-17T10:12:56.339Z,24.20
2022-08-17T10:15:54.118Z,24.30
2022-08-17T10:18:48.666Z,24.20
2022-08-17T10:22:00.947Z,24.20
2022-08-17T10:25:21.539Z,24.30
2022-08-17T10:28:19.752Z,24.40
2022-08-17T10:31:33.068Z,24.40
2022-08-17T10:34:11.504Z,24.40
2022-08-17T10:37:07.310Z,24.40
2022-08-17T10:40:19.072Z,24.40
2022-08-17T10:43:17.238Z,24.30
2022-08-17T10:46:30.002Z,24.40
2022-08-17T10:49:16.784Z,24.40
2022-08-17T10:52:04.701Z,24.50
2022-08-17T10:54:58.535Z,24.50
2022-08-17T10:57:49.518Z,24.50
2022-08-17T11:00:41.197Z,24.60
2022-08-17T11:03:27.633Z,24.60
2022-08-17T11:06:32.165Z,24.60
2022-08-17T11:09:18.592Z,24.60
2022-08-17T11:12:23.920Z,24.60
2022-08-17T11:15:27.779Z,24.60
2022-08-17T11:18:16.273Z,24.60
2022-08-17T11:21:20.798Z,24.60
2022-08-17T11:24:12.700Z,24.60
2022-08-17T11:27:00.813Z,24.70
2022-08-17T11:29:53.581Z,24.70
2022-08-17T11:32:54.491Z,24.70
2022-08-17T11:35:47.168Z,24.80
2022-08-17T11:38:51.331Z,24.80
2022-08-17T11:41:48.796Z,24.80
2022-08-17T11:44:37.829Z,24.90
2022-08-17T11:48:08.913Z,25.00
2022-08-17T11:51:35.594Z,24.90
2022-08-17T11:54:33.441Z,25.10
2022-08-17T11:57:25.434Z,25.10
2022-08-17T12:00:31.627Z,25.20
2022-08-17T12:03:26.481Z,25.30
2022-08-17T12:06:22.889Z,25.40
2022-08-17T12:09:18.063Z,25.30
2022-08-17T12:12:14.262Z,25.40
2022-08-17T12:15:11.124Z,25.50
2022-08-17T12:17:58.729Z,25.50
2022-08-17T12:20:47.229Z,25.50
2022-08-17T12:23:32.973Z,25.60
2022-08-17T12:26:20.838Z,25.70
2022-08-17T12:29:18.009Z,25.70
2022-08-17T12:32:18.277Z,25.80
2022-08-17T12:35:05.016Z,25.80
2022-08-17T12:37:50.592Z,25.80
2022-08-17T12:40:36.492Z,25.80
2022-08-17T12:43:23.521Z,25.90
2022-08-17T12:46:17.148Z,26.00
2022-08-17T12:49:14.113Z,26.10
2022-08-17T12:52:13.629Z,26.00
2022-08-17T12:55:01.678Z,26.00
2022-08-17T12:57:48.680Z,26.00
2022-08-17T13:00:35.646Z,26.00
2022-08-17T13:03:26.481Z,26.10
2022-08-17T13:06:14.346Z,26.10
2022-08-17T13:09:11.255Z,26.20
2022-08-17T13:12:01.158Z,26.30
2022-08-17T13:14:46.462Z,26.30
2022-08-17T13:17:34.759Z,26.20
2022-08-17T13:20:20.126Z,26.30
2022-08-17T13:23:11.882Z,26.30
2022-08-17T13:26:02.340Z,26.50
2022-08-17T13:28:51.758Z,26.40
2022-08-17T13:31:40.254Z,26.30
2022-08-17T13:34:51.392Z,26.40
2022-08-17T13:37:56.797Z,26.50
2022-08-17T13:40:45.377Z,26.50
2022-08-17T13:43:38.154Z,26.40
2022-08-17T13:46:28.410Z,26.40
2022-08-17T13:49:21.871Z,26.50
2022-08-17T13:52:08.167Z,26.60
2022-08-17T13:54:55.718Z,26.90
2022-08-17T13:57:45.601Z,27.00
2022-08-17T14:00:32.934Z,27.20
2022-08-17T14:03:23.279Z,27.50
2022-08-17T14:06:09.233Z,27.80
2022-08-17T14:08:55.795Z,28.00
2022-08-17T14:11:42.032Z,28.10
2022-08-17T14:14:29.299Z,28.30
2022-08-17T14:17:14.734Z,28.50
2022-08-17T14:20:03.750Z,28.80
2022-08-17T14:22:59.954Z,29.00
2022-08-17T14:26:21.166Z,29.20
2022-08-17T14:29:21.187Z,29.30
2022-08-17T14:32:24.935Z,29.40
2022-08-17T14:35:31.251Z,29.40
2022-08-17T14:38:19.261Z,29.40
2022-08-17T14:41:05.179Z,29.50
2022-08-17T14:43:53.250Z,29.40
2022-08-17T14:46:41.295Z,29.50
2022-08-17T14:49:26.974Z,29.50
2022-08-17T14:52:13.975Z,29.50
2022-08-17T14:54:59.243Z,29.20
2022-08-17T14:57:45.533Z,28.70
2022-08-17T15:00:35.447Z,28.40
2022-08-17T15:03:21.111Z,28.30
2022-08-17T15:06:06.832Z,28.20
2022-08-17T15:08:54.221Z,27.90
2022-08-17T15:11:40.398Z,27.80
2022-08-17T15:14:25.579Z,27.50
2022-08-17T15:17:11.561Z,27.20
2022-08-17T15:19:59.651Z,27.00
2022-08-17T15:22:45.853Z,26.80
2022-08-17T15:25:32.015Z,26.80
